createdAt,value
2018-12-17T00:00:32.762Z,951.68
2018-12-17T00:01:32.742Z,951.58
2018-12-17T00:02:32.723Z,951.61
2018-12-17T00:03:32.703Z,951.62
2018-12-17T00:04:32.683Z,951.66
2018-12-17T00:05:32.665Z,951.7
2018-12-17T00:06:32.643Z,951.67
2018-12-17T00:07:32.625Z,951.7
2018-12-17T00:08:32.756Z,951.69
2018-12-17T00:09:32.585Z,951.68
2018-12-17T00:10:32.566Z,951.73
2018-12-17T00:11:32.548Z,951.74
2018-12-17T00:12:32.526Z,951.74
2018-12-17T00:13:32.507Z,951.7
2018-12-17T00:14:32.497Z,951.72
2018-12-17T00:15:32.469Z,951.7
2018-12-17T00:16:32.448Z,951.72
2018-12-17T00:17:32.430Z,951.7
2018-12-17T00:18:32.411Z,951.71
2018-12-17T00:19:32.390Z,951.71
2018-12-17T00:20:32.370Z,951.7
2018-12-17T00:21:32.352Z,951.74
2018-12-17T00:22:32.332Z,951.72
2018-12-17T00:23:32.311Z,951.72
2018-12-17T00:24:32.296Z,951.75
2018-12-17T00:25:32.276Z,951.75
2018-12-17T00:26:32.253Z,951.73
2018-12-17T00:27:32.233Z,951.74
2018-12-17T00:28:32.216Z,951.7
2018-12-17T00:29:32.198Z,951.74
2018-12-17T00:30:32.175Z,951.76
2018-12-17T00:31:32.157Z,951.78
2018-12-17T00:32:32.137Z,951.8
2018-12-17T00:33:32.118Z,951.8
2018-12-17T00:34:32.099Z,951.82
2018-12-17T00:35:32.079Z,951.82
2018-12-17T00:36:32.064Z,951.81
2018-12-17T00:37:32.040Z,951.77
2018-12-17T00:38:32.022Z,951.8
2018-12-17T00:39:32.003Z,951.8
2018-12-17T00:40:31.983Z,951.81
2018-12-17T00:41:31.963Z,951.81
2018-12-17T00:42:31.943Z,951.8
2018-12-17T00:43:31.925Z,951.82
2018-12-17T00:44:31.904Z,951.86
2018-12-17T00:45:31.885Z,951.79
2018-12-17T00:46:31.866Z,951.81
2018-12-17T00:47:31.847Z,951.82
2018-12-17T00:48:31.827Z,951.86
2018-12-17T00:49:31.808Z,951.85
2018-12-17T00:50:31.789Z,951.88
2018-12-17T00:51:31.769Z,951.88
2018-12-17T00:52:31.813Z,951.93
2018-12-17T00:53:31.731Z,951.92
2018-12-17T00:54:31.711Z,951.91
2018-12-17T00:55:31.693Z,951.87
2018-12-17T00:56:31.672Z,951.87
2018-12-17T00:57:31.652Z,951.9
2018-12-17T00:58:31.641Z,951.87
2018-12-17T00:59:31.614Z,951.93
2018-12-17T01:00:31.593Z,951.91
2018-12-17T01:01:31.574Z,951.96
2018-12-17T01:02:31.555Z,951.96
2018-12-17T01:03:31.536Z,951.99
2018-12-17T01:04:31.516Z,951.99
2018-12-17T01:05:31.496Z,951.96
2018-12-17T01:06:31.484Z,952.03
2018-12-17T01:07:31.457Z,952.05
2018-12-17T01:08:31.439Z,952.04
2018-12-17T01:09:31.425Z,952.08
2018-12-17T01:10:31.400Z,952.09
2018-12-17T01:11:31.380Z,952.15
2018-12-17T01:12:31.361Z,952.13
2018-12-17T01:13:31.342Z,952.16
2018-12-17T01:14:31.320Z,952.13
2018-12-17T01:15:31.302Z,952.15
2018-12-17T01:16:31.283Z,952.13
2018-12-17T01:17:31.263Z,952.2
2018-12-17T01:18:31.244Z,952.2
2018-12-17T01:19:31.226Z,952.21
2018-12-17T01:20:31.205Z,952.21
2018-12-17T01:21:31.184Z,952.2
2018-12-17T01:22:31.167Z,952.23
2018-12-17T01:23:31.147Z,952.23
2018-12-17T01:24:31.129Z,952.22
2018-12-17T01:25:31.107Z,952.22
2018-12-17T01:26:31.088Z,952.26
2018-12-17T01:27:31.070Z,952.27
2018-12-17T01:28:31.049Z,952.26
2018-12-17T01:29:31.030Z,952.25
2018-12-17T01:30:31.010Z,952.26
2018-12-17T01:31:30.993Z,952.22
2018-12-17T01:32:30.971Z,952.21
2018-12-17T01:33:30.954Z,952.23
2018-12-17T01:34:30.934Z,952.28
2018-12-17T01:35:30.917Z,952.27
2018-12-17T01:36:30.894Z,952.25
2018-12-17T01:37:30.879Z,952.25
2018-12-17T01:38:30.856Z,952.23
2018-12-17T01:39:30.835Z,952.28
2018-12-17T01:40:30.816Z,952.26
2018-12-17T01:41:30.798Z,952.28
2018-12-17T01:42:30.778Z,952.24
2018-12-17T01:43:30.758Z,952.21
2018-12-17T01:44:30.740Z,952.25
2018-12-17T01:45:30.720Z,952.24
2018-12-17T01:46:30.700Z,952.25
2018-12-17T01:47:30.681Z,952.21
2018-12-17T01:48:30.867Z,952.21
2018-12-17T01:49:30.645Z,952.21
2018-12-17T01:50:30.622Z,952.18
2018-12-17T01:51:30.604Z,952.23
2018-12-17T01:52:30.583Z,952.2
2018-12-17T01:53:30.564Z,952.2
2018-12-17T01:54:30.544Z,952.18
2018-12-17T01:55:30.525Z,952.2
2018-12-17T01:56:30.506Z,952.19
2018-12-17T01:57:30.488Z,952.18
2018-12-17T01:58:30.467Z,952.18
2018-12-17T01:59:30.448Z,952.16
2018-12-17T02:00:30.431Z,952.19
2018-12-17T02:01:30.410Z,952.21
2018-12-17T02:02:30.391Z,952.22
2018-12-17T02:03:30.373Z,952.21
2018-12-17T02:04:30.351Z,952.19
2018-12-17T02:05:30.331Z,952.17
2018-12-17T02:06:30.314Z,952.18
2018-12-17T02:07:30.294Z,952.21
2018-12-17T02:08:30.275Z,952.24
2018-12-17T02:09:30.255Z,952.24
2018-12-17T02:10:30.238Z,952.24
2018-12-17T02:11:31.446Z,952.21
2018-12-17T02:12:30.198Z,952.22
2018-12-17T02:13:30.180Z,952.23
2018-12-17T02:14:30.159Z,952.16
2018-12-17T02:15:30.141Z,952.19
2018-12-17T02:16:30.122Z,952.15
2018-12-17T02:17:30.103Z,952.19
2018-12-17T02:18:30.083Z,952.17
2018-12-17T02:19:30.062Z,952.17
2018-12-17T02:20:30.043Z,952.17
2018-12-17T02:21:30.226Z,952.19
2018-12-17T02:22:30.005Z,952.19
2018-12-17T02:23:29.987Z,952.25
2018-12-17T02:24:29.967Z,952.22
2018-12-17T02:25:29.949Z,952.23
2018-12-17T02:26:29.928Z,952.21
2018-12-17T02:27:29.909Z,952.25
2018-12-17T02:28:35.918Z,952.22
2018-12-17T02:29:29.872Z,952.26
2018-12-17T02:30:29.858Z,952.26
2018-12-17T02:31:29.831Z,952.25
2018-12-17T02:32:29.812Z,952.3
2018-12-17T02:33:29.794Z,952.28
2018-12-17T02:34:29.776Z,952.33
2018-12-17T02:35:29.756Z,952.31
2018-12-17T02:36:29.736Z,952.38
2018-12-17T02:37:29.718Z,952.41
2018-12-17T02:38:29.696Z,952.43
2018-12-17T02:39:29.679Z,952.41
2018-12-17T02:40:29.660Z,952.42
2018-12-17T02:41:29.638Z,952.46
2018-12-17T02:42:29.620Z,952.46
2018-12-17T02:43:29.601Z,952.44
2018-12-17T02:44:29.585Z,952.44
2018-12-17T02:45:29.560Z,952.42
2018-12-17T02:46:29.545Z,952.5
2018-12-17T02:47:29.524Z,952.48
2018-12-17T02:48:29.505Z,952.47
2018-12-17T02:52:09.801Z,952.59
2018-12-17T02:53:09.781Z,952.56
2018-12-17T02:54:09.760Z,952.59
2018-12-17T02:55:09.743Z,952.67
2018-12-17T02:56:09.739Z,952.65
2018-12-17T02:57:09.703Z,952.69
2018-12-17T02:58:09.686Z,952.62
2018-12-17T02:59:09.668Z,952.67
2018-12-17T03:00:09.648Z,952.63
2018-12-17T03:01:09.627Z,952.59
2018-12-17T03:02:09.607Z,952.62
2018-12-17T03:03:09.591Z,952.64
2018-12-17T03:04:09.570Z,952.61
2018-12-17T03:05:09.551Z,952.66
2018-12-17T03:06:09.531Z,952.64
2018-12-17T03:07:09.511Z,952.63
2018-12-17T03:08:09.491Z,952.62
2018-12-17T03:09:09.477Z,952.63
2018-12-17T03:10:09.455Z,952.63
2018-12-17T03:11:09.435Z,952.62
2018-12-17T03:12:09.415Z,952.66
2018-12-17T03:13:09.397Z,952.67
2018-12-17T03:14:09.379Z,952.65
2018-12-17T03:15:09.359Z,952.67
2018-12-17T03:16:09.339Z,952.68
2018-12-17T03:17:09.321Z,952.69
2018-12-17T03:18:09.299Z,952.74
2018-12-17T03:19:09.280Z,952.67
2018-12-17T03:20:09.263Z,952.72
2018-12-17T03:21:09.243Z,952.71
2018-12-17T03:22:09.224Z,952.72
2018-12-17T03:23:09.206Z,952.73
2018-12-17T03:24:09.190Z,952.75
2018-12-17T03:25:09.168Z,952.76
2018-12-17T03:26:09.149Z,952.76
2018-12-17T03:27:09.130Z,952.76
2018-12-17T03:28:09.112Z,952.76
2018-12-17T03:29:09.095Z,952.76
2018-12-17T03:30:09.072Z,952.79
2018-12-17T03:31:09.053Z,952.77
2018-12-17T03:32:09.035Z,952.76
2018-12-17T03:33:09.013Z,952.76
2018-12-17T03:34:08.993Z,952.73
2018-12-17T03:35:08.983Z,952.77
2018-12-17T03:36:08.956Z,952.77
2018-12-17T03:37:08.936Z,952.76
2018-12-17T03:38:08.918Z,952.76
2018-12-17T03:39:08.898Z,952.77
2018-12-17T03:40:08.882Z,952.74
2018-12-17T03:41:08.867Z,952.82
2018-12-17T03:42:08.841Z,952.81
2018-12-17T03:43:08.838Z,952.78
2018-12-17T03:44:08.803Z,952.82
2018-12-17T03:45:08.788Z,952.78
2018-12-17T03:46:08.766Z,952.84
2018-12-17T03:47:08.750Z,952.85
2018-12-17T03:48:08.727Z,952.8
2018-12-17T03:49:08.709Z,952.81
2018-12-17T03:50:08.689Z,952.83
2018-12-17T03:51:08.672Z,952.83
2018-12-17T03:52:08.650Z,952.84
2018-12-17T03:53:08.630Z,952.78
2018-12-17T03:54:08.613Z,952.83
2018-12-17T03:55:08.593Z,952.83
2018-12-17T03:56:08.574Z,952.82
2018-12-17T03:57:08.555Z,952.81
2018-12-17T03:58:08.536Z,952.83
2018-12-17T03:59:08.518Z,952.86
2018-12-17T04:00:08.499Z,952.85
2018-12-17T04:01:08.483Z,952.83
2018-12-17T04:02:08.462Z,952.79
2018-12-17T04:03:08.443Z,952.82
2018-12-17T04:04:08.422Z,952.78
2018-12-17T04:05:08.406Z,952.88
2018-12-17T04:06:08.388Z,952.88
2018-12-17T04:07:08.366Z,952.9
2018-12-17T04:08:08.349Z,952.87
2018-12-17T04:09:08.327Z,952.88
2018-12-17T04:10:08.308Z,952.85
2018-12-17T04:11:08.290Z,952.87
2018-12-17T04:12:08.273Z,952.87
2018-12-17T04:13:08.259Z,952.9
2018-12-17T04:14:08.232Z,952.92
2018-12-17T04:15:08.214Z,952.98
2018-12-17T04:16:08.195Z,952.95
2018-12-17T04:17:08.174Z,952.94
2018-12-17T04:18:08.156Z,953
2018-12-17T04:19:08.139Z,953
2018-12-17T04:20:08.117Z,953.05
2018-12-17T04:21:08.100Z,953.05
2018-12-17T04:22:08.081Z,953.07
2018-12-17T04:23:08.067Z,953.12
2018-12-17T04:24:08.041Z,953.06
2018-12-17T04:25:08.023Z,953.08
2018-12-17T04:26:08.009Z,953.09
2018-12-17T04:27:07.986Z,953.04
2018-12-17T04:28:07.966Z,953.08
2018-12-17T04:29:07.950Z,953.05
2018-12-17T04:30:07.943Z,953.08
2018-12-17T04:31:07.910Z,953.13
2018-12-17T04:32:07.891Z,953.1
2018-12-17T04:33:07.873Z,953.17
2018-12-17T04:34:07.853Z,953.23
2018-12-17T04:35:07.834Z,953.21
2018-12-17T04:36:07.814Z,953.23
2018-12-17T04:37:07.796Z,953.23
2018-12-17T04:38:07.778Z,953.24
2018-12-17T04:39:07.764Z,953.22
2018-12-17T04:40:07.743Z,953.25
2018-12-17T04:41:07.722Z,953.28
2018-12-17T04:42:07.702Z,953.31
2018-12-17T04:43:07.683Z,953.33
2018-12-17T04:44:07.666Z,953.34
2018-12-17T04:45:07.645Z,953.32
2018-12-17T04:46:07.627Z,953.39
2018-12-17T04:47:07.609Z,953.4
2018-12-17T04:48:07.589Z,953.42
2018-12-17T04:49:07.571Z,953.43
2018-12-17T04:50:07.553Z,953.41
2018-12-17T04:51:07.533Z,953.41
2018-12-17T04:52:07.515Z,953.42
2018-12-17T04:53:07.495Z,953.45
2018-12-17T04:54:07.476Z,953.44
2018-12-17T04:55:07.458Z,953.49
2018-12-17T04:56:07.438Z,953.5
2018-12-17T04:57:07.419Z,953.48
2018-12-17T04:58:07.402Z,953.55
2018-12-17T04:59:14.338Z,953.5
2018-12-17T05:00:07.367Z,953.55
2018-12-17T05:01:07.345Z,953.51
2018-12-17T05:02:07.327Z,953.52
2018-12-17T05:03:07.309Z,953.54
2018-12-17T05:04:07.290Z,953.59
2018-12-17T05:05:07.270Z,953.59
2018-12-17T05:06:07.252Z,953.6
2018-12-17T05:07:07.232Z,953.6
2018-12-17T05:08:07.216Z,953.6
2018-12-17T05:09:07.194Z,953.65
2018-12-17T05:10:07.176Z,953.63
2018-12-17T05:11:07.157Z,953.69
2018-12-17T05:12:07.139Z,953.69
2018-12-17T05:13:07.131Z,953.68
2018-12-17T05:14:07.104Z,953.71
2018-12-17T05:15:07.082Z,953.74
2018-12-17T05:16:07.067Z,953.73
2018-12-17T05:17:07.046Z,953.76
2018-12-17T05:18:07.028Z,953.73
2018-12-17T05:19:07.013Z,953.77
2018-12-17T05:20:06.990Z,953.72
2018-12-17T05:21:06.971Z,953.77
2018-12-17T05:22:06.954Z,953.76
2018-12-17T05:23:06.933Z,953.81
2018-12-17T05:24:06.915Z,953.83
2018-12-17T05:25:06.897Z,953.87
2018-12-17T05:26:06.877Z,953.86
2018-12-17T05:27:06.859Z,953.84
2018-12-17T05:28:06.841Z,953.93
2018-12-17T05:29:06.823Z,953.95
2018-12-17T05:30:06.802Z,953.9
2018-12-17T05:31:06.785Z,953.97
2018-12-17T05:32:06.774Z,953.96
2018-12-17T05:33:06.748Z,954
2018-12-17T05:34:06.730Z,954
2018-12-17T05:35:06.711Z,953.99
2018-12-17T05:36:06.693Z,954.03
2018-12-17T05:37:06.675Z,953.96
2018-12-17T05:38:06.674Z,954.04
2018-12-17T05:39:06.634Z,954.03
2018-12-17T05:40:06.617Z,954.05
2018-12-17T05:41:06.596Z,954.06
2018-12-17T05:42:06.579Z,954.02
2018-12-17T05:43:06.562Z,954.05
2018-12-17T05:44:06.540Z,954.07
2018-12-17T05:45:06.523Z,954.05
2018-12-17T05:46:06.504Z,954.05
2018-12-17T05:47:06.484Z,954.07
2018-12-17T05:48:06.469Z,954.05
2018-12-17T05:49:06.448Z,954.14
2018-12-17T05:50:06.430Z,954.1
2018-12-17T05:51:06.412Z,954.11
2018-12-17T05:52:06.390Z,954.17
2018-12-17T05:53:06.377Z,954.15
2018-12-17T05:54:06.354Z,954.13
2018-12-17T05:55:06.361Z,954.13
2018-12-17T05:56:06.315Z,954.19
2018-12-17T05:57:06.297Z,954.18
2018-12-17T05:58:06.282Z,954.17
2018-12-17T05:59:06.258Z,954.23
2018-12-17T06:00:06.238Z,954.26
2018-12-17T06:01:06.219Z,954.21
2018-12-17T06:02:06.201Z,954.24
2018-12-17T06:03:06.181Z,954.27
2018-12-17T06:04:06.164Z,954.31
2018-12-17T06:05:06.147Z,954.32
2018-12-17T06:06:06.127Z,954.3
2018-12-17T06:07:06.108Z,954.35
2018-12-17T06:08:06.090Z,954.34
2018-12-17T06:09:06.075Z,954.35
2018-12-17T06:10:06.051Z,954.35
2018-12-17T06:11:06.033Z,954.4
2018-12-17T06:12:06.014Z,954.43
2018-12-17T06:13:05.996Z,954.39
2018-12-17T06:14:05.975Z,954.42
2018-12-17T06:15:05.957Z,954.44
2018-12-17T06:16:05.938Z,954.45
2018-12-17T06:17:05.918Z,954.47
2018-12-17T06:18:05.902Z,954.48
2018-12-17T06:19:05.882Z,954.49
2018-12-17T06:20:05.863Z,954.5
2018-12-17T06:21:05.842Z,954.51
2018-12-17T06:22:05.823Z,954.5
2018-12-17T06:23:05.809Z,954.49
2018-12-17T06:24:05.785Z,954.49
2018-12-17T06:25:05.768Z,954.46
2018-12-17T06:26:05.748Z,954.51
2018-12-17T06:27:05.729Z,954.46
2018-12-17T06:28:05.710Z,954.48
2018-12-17T06:29:05.691Z,954.47
2018-12-17T06:30:05.672Z,954.48
2018-12-17T06:31:05.652Z,954.49
2018-12-17T06:32:05.634Z,954.53
2018-12-17T06:33:05.907Z,954.5
2018-12-17T06:34:05.597Z,954.52
2018-12-17T06:35:05.582Z,954.55
2018-12-17T06:36:05.559Z,954.6
2018-12-17T06:37:05.539Z,954.62
2018-12-17T06:38:05.521Z,954.64
2018-12-17T06:39:05.502Z,954.65
2018-12-17T06:40:10.099Z,954.63
2018-12-17T06:41:05.464Z,954.68
2018-12-17T06:42:05.447Z,954.69
2018-12-17T06:43:05.426Z,954.74
2018-12-17T06:44:05.407Z,954.7
2018-12-17T06:45:05.390Z,954.78
2018-12-17T06:46:05.371Z,954.77
2018-12-17T06:47:05.352Z,954.75
2018-12-17T06:48:05.335Z,954.77
2018-12-17T06:49:05.313Z,954.77
2018-12-17T06:50:05.294Z,954.81
2018-12-17T06:51:05.276Z,954.81
2018-12-17T06:52:05.257Z,954.79
2018-12-17T06:53:05.240Z,954.84
2018-12-17T06:54:05.221Z,954.87
2018-12-17T06:55:05.886Z,954.88
2018-12-17T06:56:05.181Z,954.91
2018-12-17T06:57:05.164Z,954.89
2018-12-17T06:58:05.145Z,954.9
2018-12-17T06:59:05.127Z,954.91
2018-12-17T07:00:05.110Z,954.89
2018-12-17T07:01:05.088Z,954.92
2018-12-17T07:02:05.070Z,954.95
2018-12-17T07:03:05.053Z,954.94
2018-12-17T07:04:05.033Z,954.94
2018-12-17T07:05:05.114Z,954.95
2018-12-17T07:06:04.996Z,954.99
2018-12-17T07:07:04.975Z,955.01
2018-12-17T07:08:04.957Z,955.06
2018-12-17T07:09:04.938Z,955.06
2018-12-17T07:10:04.920Z,955.08
2018-12-17T07:11:04.902Z,955.04
2018-12-17T07:12:04.884Z,955.08
2018-12-17T07:13:04.863Z,955.13
2018-12-17T07:14:04.845Z,955.12
2018-12-17T07:15:04.827Z,955.15
2018-12-17T07:16:04.808Z,955.12
2018-12-17T07:17:04.790Z,955.18
2018-12-17T07:18:04.770Z,955.14
2018-12-17T07:19:04.752Z,955.15
2018-12-17T07:20:04.734Z,955.14
2018-12-17T07:21:04.715Z,955.16
2018-12-17T07:22:04.696Z,955.18
2018-12-17T07:23:04.679Z,955.2
2018-12-17T07:24:04.660Z,955.22
2018-12-17T07:25:04.641Z,955.23
2018-12-17T07:26:04.622Z,955.25
2018-12-17T07:27:04.603Z,955.28
2018-12-17T07:28:04.586Z,955.29
2018-12-17T07:29:04.566Z,955.3
2018-12-17T07:30:04.546Z,955.35
2018-12-17T07:31:04.528Z,955.35
2018-12-17T07:32:04.511Z,955.37
2018-12-17T07:33:04.492Z,955.42
2018-12-17T07:34:04.473Z,955.46
2018-12-17T07:35:04.454Z,955.45
2018-12-17T07:36:04.437Z,955.47
2018-12-17T07:37:04.424Z,955.51
2018-12-17T07:38:04.400Z,955.48
2018-12-17T07:39:04.381Z,955.5
2018-12-17T07:40:04.362Z,955.48
2018-12-17T07:41:04.344Z,955.53
2018-12-17T07:42:04.324Z,955.59
2018-12-17T07:43:04.307Z,955.58
2018-12-17T07:44:04.290Z,955.64
2018-12-17T07:45:05.228Z,955.66
2018-12-17T07:46:04.252Z,955.65
2018-12-17T07:47:04.234Z,955.66
2018-12-17T07:48:04.226Z,955.71
2018-12-17T07:49:04.196Z,955.69
2018-12-17T07:50:04.178Z,955.66
2018-12-17T07:51:04.161Z,955.71
2018-12-17T07:52:04.141Z,955.72
2018-12-17T07:53:04.124Z,955.82
2018-12-17T07:54:04.106Z,955.76
2018-12-17T07:55:04.086Z,955.79
2018-12-17T07:56:04.067Z,955.8
2018-12-17T07:57:04.051Z,955.81
2018-12-17T07:58:04.032Z,955.81
2018-12-17T07:59:04.014Z,955.82
2018-12-17T08:00:03.994Z,955.9
2018-12-17T08:01:03.979Z,955.9
2018-12-17T08:02:03.961Z,955.86
2018-12-17T08:03:03.941Z,955.83
2018-12-17T08:04:03.923Z,955.8
2018-12-17T08:05:03.905Z,955.85
2018-12-17T08:06:03.887Z,955.9
2018-12-17T08:07:03.868Z,955.9
2018-12-17T08:08:03.852Z,955.93
2018-12-17T08:09:03.834Z,955.97
2018-12-17T08:10:03.816Z,955.97
2018-12-17T08:11:03.795Z,955.93
2018-12-17T08:12:03.779Z,955.98
2018-12-17T08:13:03.761Z,955.91
2018-12-17T08:14:03.742Z,955.98
2018-12-17T08:15:03.723Z,955.94
2018-12-17T08:16:03.707Z,955.94
2018-12-17T08:17:03.688Z,955.97
2018-12-17T08:18:03.671Z,956.01
2018-12-17T08:19:03.652Z,955.99
2018-12-17T08:20:03.637Z,956.05
2018-12-17T08:21:03.616Z,956.02
2018-12-17T08:22:03.599Z,955.99
2018-12-17T08:23:03.581Z,956.03
2018-12-17T08:24:03.565Z,956.01
2018-12-17T08:25:03.546Z,956.03
2018-12-17T08:26:03.528Z,956.08
2018-12-17T08:27:03.513Z,956.05
2018-12-17T08:28:03.492Z,956.05
2018-12-17T08:29:03.475Z,956.09
2018-12-17T08:30:03.973Z,956.02
2018-12-17T08:31:03.438Z,955.99
2018-12-17T08:32:03.421Z,955.98
2018-12-17T08:33:03.402Z,955.99
2018-12-17T08:34:03.384Z,955.96
2018-12-17T08:35:03.369Z,956.02
2018-12-17T08:36:03.349Z,956.08
2018-12-17T08:37:03.333Z,956.06
2018-12-17T08:38:03.317Z,956.07
2018-12-17T08:39:03.297Z,956.07
2018-12-17T08:40:03.279Z,956.08
2018-12-17T08:41:03.262Z,956.12
2018-12-17T08:42:03.244Z,956.1
2018-12-17T08:43:03.226Z,956.08
2018-12-17T08:44:03.209Z,956.13
2018-12-17T08:45:03.192Z,956.13
2018-12-17T08:46:03.173Z,956.15
2018-12-17T08:47:03.157Z,956.17
2018-12-17T08:48:03.138Z,956.19
2018-12-17T08:49:03.121Z,956.22
2018-12-17T08:50:03.105Z,956.24
2018-12-17T08:51:03.085Z,956.25
2018-12-17T08:52:03.068Z,956.29
2018-12-17T08:53:03.051Z,956.33
2018-12-17T08:54:03.037Z,956.38
2018-12-17T08:55:03.018Z,956.39
2018-12-17T08:56:03.000Z,956.39
2018-12-17T08:57:02.984Z,956.41
2018-12-17T08:58:02.966Z,956.41
2018-12-17T08:59:02.949Z,956.41
2018-12-17T09:00:02.932Z,956.42
2018-12-17T09:01:02.916Z,956.4
2018-12-17T09:02:02.900Z,956.43
2018-12-17T09:03:02.882Z,956.49
2018-12-17T09:04:02.868Z,956.53
2018-12-17T09:05:02.850Z,956.48
2018-12-17T09:06:02.833Z,956.55
2018-12-17T09:07:02.814Z,956.54
2018-12-17T09:08:02.797Z,956.55
2018-12-17T09:09:02.780Z,956.57
2018-12-17T09:10:02.764Z,956.6
2018-12-17T09:11:02.747Z,956.64
2018-12-17T09:12:02.730Z,956.62
2018-12-17T09:13:02.714Z,956.67
2018-12-17T09:14:02.701Z,956.61
2018-12-17T09:15:02.680Z,956.73
2018-12-17T09:16:02.663Z,956.73
2018-12-17T09:17:02.648Z,956.74
2018-12-17T09:18:02.631Z,956.73
2018-12-17T09:19:02.614Z,956.79
2018-12-17T09:20:02.598Z,956.78
2018-12-17T09:21:02.581Z,956.81
2018-12-17T09:22:02.566Z,956.78
2018-12-17T09:23:02.548Z,956.82
2018-12-17T09:24:02.529Z,956.85
2018-12-17T09:25:02.514Z,956.89
2018-12-17T09:26:02.498Z,956.9
2018-12-17T09:27:02.479Z,956.85
2018-12-17T09:28:02.464Z,956.82
2018-12-17T09:29:02.448Z,956.86
2018-12-17T09:30:02.431Z,956.88
2018-12-17T09:31:02.413Z,956.87
2018-12-17T09:32:02.397Z,956.88
2018-12-17T09:33:02.379Z,956.88
2018-12-17T09:34:02.364Z,956.87
2018-12-17T09:35:02.347Z,956.83
2018-12-17T09:36:02.331Z,956.87
2018-12-17T09:37:02.314Z,956.83
2018-12-17T09:38:02.298Z,956.84
2018-12-17T09:39:02.282Z,956.83
2018-12-17T09:40:02.266Z,956.83
2018-12-17T09:41:02.247Z,956.87
2018-12-17T09:42:02.234Z,956.79
2018-12-17T09:43:02.212Z,956.8
2018-12-17T09:44:03.758Z,956.83
2018-12-17T09:45:02.178Z,956.91
2018-12-17T09:46:02.162Z,956.91
2018-12-17T09:47:02.146Z,956.9
2018-12-17T09:48:02.131Z,956.98
2018-12-17T09:49:02.113Z,956.96
2018-12-17T09:50:02.095Z,956.88
2018-12-17T09:51:02.081Z,956.97
2018-12-17T09:52:02.063Z,956.95
2018-12-17T09:53:02.048Z,957
2018-12-17T09:54:02.029Z,957.01
2018-12-17T09:55:02.013Z,956.97
2018-12-17T09:56:01.997Z,956.94
2018-12-17T09:57:01.980Z,956.95
2018-12-17T09:58:01.965Z,956.93
2018-12-17T09:59:01.948Z,956.86
2018-12-17T10:00:01.930Z,956.88
2018-12-17T10:01:01.914Z,956.89
2018-12-17T10:02:01.899Z,956.92
2018-12-17T10:03:01.882Z,956.93
2018-12-17T10:04:01.864Z,956.91
2018-12-17T10:05:01.854Z,956.91
2018-12-17T10:06:01.831Z,956.96
2018-12-17T10:07:01.815Z,956.96
2018-12-17T10:08:01.799Z,956.94
2018-12-17T10:09:01.783Z,956.94
2018-12-17T10:10:01.767Z,956.98
2018-12-17T10:11:01.749Z,957
2018-12-17T10:12:01.736Z,956.97
2018-12-17T10:13:01.718Z,957.02
2018-12-17T10:14:01.702Z,957.07
2018-12-17T10:15:01.685Z,957.02
2018-12-17T10:16:01.668Z,957.04
2018-12-17T10:17:01.650Z,957.06
2018-12-17T10:18:01.637Z,957.01
2018-12-17T10:19:01.621Z,957.02
2018-12-17T10:20:01.605Z,957.03
2018-12-17T10:21:01.591Z,957
2018-12-17T10:22:01.581Z,957.03
2018-12-17T10:23:01.558Z,957.02
2018-12-17T10:24:01.540Z,957.02
2018-12-17T10:25:01.526Z,957.01
2018-12-17T10:26:01.510Z,957.01
2018-12-17T10:27:01.493Z,956.99
2018-12-17T10:28:01.478Z,957.02
2018-12-17T10:29:01.465Z,957.02
2018-12-17T10:30:01.451Z,957.04
2018-12-17T10:31:01.431Z,957.06
2018-12-17T10:32:01.416Z,957.08
2018-12-17T10:33:01.403Z,957.06
2018-12-17T10:34:01.384Z,957.09
2018-12-17T10:35:01.372Z,957.08
2018-12-17T10:36:01.355Z,957.08
2018-12-17T10:37:01.338Z,957.06
2018-12-17T10:38:01.324Z,957.09
2018-12-17T10:39:01.308Z,957.06
2018-12-17T10:40:01.311Z,957.07
2018-12-17T10:41:01.277Z,957.07
2018-12-17T10:42:01.267Z,957.07
2018-12-17T10:43:01.245Z,957.03
2018-12-17T10:44:01.231Z,956.99
2018-12-17T10:45:01.214Z,957
2018-12-17T10:46:01.203Z,956.99
2018-12-17T10:47:01.184Z,956.98
2018-12-17T10:48:01.168Z,956.91
2018-12-17T10:49:01.155Z,956.91
2018-12-17T10:50:01.138Z,956.95
2018-12-17T10:51:01.121Z,956.93
2018-12-17T10:52:01.110Z,956.92
2018-12-17T10:53:01.091Z,956.93
2018-12-17T10:54:01.077Z,956.91
2018-12-17T10:55:01.061Z,956.84
2018-12-17T10:56:01.045Z,956.89
2018-12-17T10:57:01.030Z,956.87
2018-12-17T10:58:01.017Z,956.9
2018-12-17T10:59:01.002Z,956.87
2018-12-17T11:00:00.984Z,956.87
2018-12-17T11:01:00.970Z,956.89
2018-12-17T11:02:00.955Z,956.88
2018-12-17T11:03:00.945Z,956.84
2018-12-17T11:04:00.927Z,956.83
2018-12-17T11:05:00.910Z,956.8
2018-12-17T11:06:00.894Z,956.86
2018-12-17T11:07:00.878Z,956.92
2018-12-17T11:08:00.864Z,956.89
2018-12-17T11:09:00.849Z,956.93
2018-12-17T11:10:00.833Z,956.96
2018-12-17T11:11:00.818Z,956.9
2018-12-17T11:12:00.804Z,957.03
2018-12-17T11:13:00.786Z,957
2018-12-17T11:14:00.772Z,956.95
2018-12-17T11:15:00.757Z,956.99
2018-12-17T11:16:00.742Z,957
2018-12-17T11:17:00.727Z,957.03
2018-12-17T11:18:00.710Z,957
2018-12-17T11:19:00.695Z,956.97
2018-12-17T11:20:00.685Z,956.99
2018-12-17T11:21:00.665Z,956.95
2018-12-17T11:22:00.651Z,957.02
2018-12-17T11:23:00.714Z,957.03
2018-12-17T11:24:00.619Z,957.04
2018-12-17T11:25:00.602Z,957.01
2018-12-17T11:26:00.589Z,957.02
2018-12-17T11:27:00.573Z,957.02
2018-12-17T11:28:00.555Z,956.95
2018-12-17T11:29:00.542Z,956.99
2018-12-17T11:30:00.527Z,956.96
2018-12-17T11:31:00.511Z,956.99
2018-12-17T11:32:00.495Z,956.97
2018-12-17T11:33:00.479Z,956.97
2018-12-17T11:34:00.464Z,956.98
2018-12-17T11:35:00.449Z,956.94
2018-12-17T11:36:00.432Z,956.92
2018-12-17T11:37:00.416Z,956.98
2018-12-17T11:38:00.401Z,956.96
2018-12-17T11:39:00.385Z,956.95
2018-12-17T11:40:00.368Z,956.99
2018-12-17T11:41:00.352Z,956.99
2018-12-17T11:42:00.338Z,956.99
2018-12-17T11:43:00.322Z,956.99
2018-12-17T11:44:00.305Z,956.96
2018-12-17T11:45:00.291Z,957.06
2018-12-17T11:46:00.275Z,957.08
2018-12-17T11:47:00.259Z,957.06
2018-12-17T11:48:00.241Z,957.09
2018-12-17T11:49:00.227Z,957.08
2018-12-17T11:50:00.209Z,957.05
2018-12-17T11:51:00.198Z,957.04
2018-12-17T11:52:01.236Z,957.05
2018-12-17T11:53:00.163Z,957.02
2018-12-17T11:54:00.148Z,956.99
2018-12-17T11:55:00.131Z,957
2018-12-17T11:56:00.118Z,957.07
2018-12-17T11:57:00.099Z,957.05
2018-12-17T11:58:00.084Z,957.06
2018-12-17T11:59:00.069Z,957.1
2018-12-17T12:00:00.054Z,957.06
2018-12-17T12:01:00.036Z,957.09
2018-12-17T12:02:00.021Z,957.07
2018-12-17T12:03:00.007Z,957.09
2018-12-17T12:03:59.989Z,957.07
2018-12-17T12:04:59.977Z,957.09
2018-12-17T12:05:59.958Z,957.11
2018-12-17T12:06:59.942Z,957.09
2018-12-17T12:07:59.926Z,957.13
2018-12-17T12:08:59.910Z,957.13
2018-12-17T12:09:59.896Z,957.07
2018-12-17T12:10:59.882Z,957.04
2018-12-17T12:11:59.864Z,957.03
2018-12-17T12:12:59.848Z,957.03
2018-12-17T12:13:59.835Z,957.02
2018-12-17T12:14:59.818Z,957.03
2018-12-17T12:15:59.801Z,957.02
2018-12-17T12:16:59.786Z,957.08
2018-12-17T12:17:59.773Z,957.05
2018-12-17T12:18:59.754Z,957.02
2018-12-17T12:19:59.738Z,957.04
2018-12-17T12:20:59.723Z,957.11
2018-12-17T12:21:59.708Z,957.07
2018-12-17T12:22:59.691Z,957.09
2018-12-17T12:23:59.676Z,957.14
2018-12-17T12:24:59.660Z,957.17
2018-12-17T12:25:59.643Z,957.15
2018-12-17T12:26:59.629Z,957.2
2018-12-17T12:27:59.613Z,957.19
2018-12-17T12:28:59.596Z,957.23
2018-12-17T12:29:59.580Z,957.18
2018-12-17T12:31:00.520Z,957.2
2018-12-17T12:31:59.549Z,957.11
2018-12-17T12:32:59.532Z,957.14
2018-12-17T12:33:59.518Z,957.18